AirNav   Air Wisconsin pilot careers
 
 1059 users online  

X44 Miami Seaplane Base
Miami, Florida, USA

GOING TO MIAMI?


FAA INFORMATION EFFECTIVE 28 FEBRUARY 2019

Location

FAA Identifier: X44
Lat/Long: 25-46-42.0000N / 080-10-13.0000W
25-46.700000N / 080-10.216667W
25.7783333 / -80.1702778
(estimated)
Elevation: 6 ft. / 2 m (estimated)
Variation: 03W (1985)
From city: 2 miles E of MIAMI, FL
Time zone: UTC -5 (UTC -4 during Daylight Saving Time)
Zip code: 33132

Seaplane Base Operations

Seaplane Base use: Open to the public, ALL TERMINAL FACILITIES ARE PRIVATE USE.
Activation date: 03/1948
Control tower: no
ARTCC: MIAMI CENTER
FSS: MIAMI FLIGHT SERVICE STATION
NOTAMs facility: MIA (NOTAM-D service available)
Attendance: DAYLIGHT HOURS
Wind indicator: yes, WIND SOCK LCTD APRXLY 500FT NW OF RAMP.
Segmented circle: no

Seaplane Base Communications

CTAF: 123.025
UNICOM: 122.8
WX ASOS at MIA (7 nm W): PHONE 305-870-0235
WX ASOS at OPF (10 nm NW): 125.9 (305-681-4063)
WX ASOS at HWO (14 nm N): PHONE 954-983-5904
WX ASOS at TMB (16 nm SW): PHONE 305-235-1332
WX ASOS at FLL (18 nm N): PHONE 954-359-7857

Nearby radio navigation aids

VOR radial/distance  VOR name  Freq  Var
VKZr336/1.8VIRGINIA KEY VOR/DME117.1004W
DHPr102/9.7DOLPHIN VORTAC113.9004W
FLLr187/17.7FORT LAUDERDALE VOR/DME114.4006W

Seaplane Base Services

Airframe service: NONE
Powerplant service: NONE
Bottled oxygen: NONE
Bulk oxygen: NONE

Runway Information

Helipad H1

Dimensions: 50 x 50 ft. / 15 x 15 m
Surface: concrete, in excellent condition
Latitude: 25-46.970000N
Longitude: 080-10.580667W
Elevation: 6.0 ft.
Traffic pattern: leftleft

Runway 12W/30W

Dimensions: 14000 x 200 ft. / 4267 x 61 m
Surface: water
RUNWAY 12W  RUNWAY 30W
Latitude: 25-46.984333N25-45.989500N
Longitude: 080-10.774000W080-08.469667W
Elevation: 0.0 ft.0.0 ft.
Traffic pattern: leftleft
Runway heading: 015 magnetic, 012 true033 magnetic, 030 true

Seaplane Base Ownership and Management from official FAA records

Ownership: Publicly-owned
Owner: CITY OF MIAMI
1000 MACARTHUR CAUSEWAY, MIAMI SEAPLANE BASE
MIAMI, FL 33132
Phone 305-442-4444
CONTACT PERSON: IGNACIO VEGA-PENICHET 305-442-4444
Manager: IGNACIO VEGA-PENICHET
MIAMI SPB, 1000 MACARTHUR CAUSEWAY
MIAMI, FL 33132
Phone 305-305-8066

Seaplane Base Operational Statistics

Aircraft operations: avg 37/week *
100% air taxi
* for 12-month period ending 02 May 2018

Additional Remarks

MIAMI HELIPORT LCTD 400 FT NE.
500 FT RDO TWR 3/4MI W OF BASE.
NUMEROUS WATERCRAFT AND LARGE PASSENGER VESSELS IN AREA.
FOR CD CTC MIAMI APCH AT 305-869-5432.

Instrument Procedures

There are no published instrument procedures at X44.

Some nearby airports with instrument procedures:

KMIA - Miami International Airport (7 nm W)
KOPF - Miami-Opa Locka Executive Airport (10 nm NW)
KHWO - North Perry Airport (14 nm N)
KTMB - Miami Executive Airport (16 nm SW)
KFLL - Fort Lauderdale/Hollywood International Airport (18 nm N)
 
Loc | Ops | Rwys | IFR | FBO | Links
Com | Nav | Svcs | Stats | Notes

Reliance Aviation
AirBoss

 
Area around X44 (Miami Seaplane Base)
 
Road maps at: MapQuest Bing Google
 
Aerial photo
WARNING: Photo may not be current or correct
Aerial photo of X44 (Miami Seaplane Base)
Photo by Mike McKenney, Bill McKenney piloting
Photo taken 12-Feb-2009
looking SE (from a left base), altitude is 400 feet. Landing zone is in the channel.

Do you have a better or more recent aerial photo of Miami Seaplane Base that you would like to share? If so, please send us your photo.

 
Sectional chart

 
Airport distance calculator
Flying to Miami Seaplane Base? Find the distance to fly.

From to X44

Sunrise and sunset
Times for 22-Mar-2019
 Local
(UTC-4)
 Zulu
(UTC)
Morning civil twilight07:0111:01
Sunrise07:2411:24
Sunset19:3223:32
Evening civil twilight19:5523:55

Current date and time
Zulu (UTC)  22-Mar-2019 21:27:12
Local (UTC-4)  22-Mar-2019 17:27:12
 
METAR
KMIA 
8nm W 
222053Z 35007KT 10SM CLR 23/03 A3005 RMK AO2 SLP174 T02330033 56013 $
KOPF 
10nm NW 
222053Z 30012KT 10SM CLR 23/04 A3005 RMK AO2 SLP177 T02330039 56013
KHWO 
14nm N 
222053Z 32008KT 10SM CLR 23/03 A3006 RMK AO2 SLP178 T02330028 56012
KTMB 
16nm SW 
222053Z 36010KT 10SM CLR 24/04 A3004 RMK AO2 SLP173 T02440039 56013
KFLL 
17nm N 
222053Z AUTO 33008KT 10SM CLR 24/05 A3004 RMK AO2 SLP170 T02390050 56012
TAF
KMIA 
8nm W 
221720Z 2218/2324 35008KT P6SM SKC FM230100 VRB03KT P6SM SKC FM231500 03006KT P6SM SKC FM231700 08008KT P6SM SKC
KOPF 
10nm NW 
221720Z 2218/2318 33010KT P6SM SKC FM222200 02008KT P6SM SKC FM230100 30004KT P6SM SKC FM231400 04008KT P6SM SKC
KTMB 
16nm SW 
221720Z 2218/2318 32011KT P6SM SKC FM222000 35008KT P6SM SKC FM230100 VRB03KT P6SM SKC FM231400 05008KT P6SM SKC
KFLL 
17nm N 
221720Z 2218/2324 01010KT P6SM SKC FM230100 VRB03KT P6SM SKC FM231400 02006KT P6SM SKC FM231800 08010KT P6SM SKC
NOTAMs
Click for the latest NOTAMs
NOTAMs are issued by the DoD/FAA and will open in a separate window not controlled by AirNav.

 

 
 

Would you like to see your business listed on this page?

 If your business provides an interesting product or service to pilots, flight crews, aircraft, or users of the Miami Seaplane Base, you should consider listing it here.  To start the listing process, click on the button below
 
Add a business
 

Other Pages about Miami Seaplane Base

www.miamiseaplanebase.com
 
Update a link
 
Copyright © AirNav, LLC. All rights reserved. Privacy Policy  Contact